createdAt,value
2022-12-01T00:01:30.651Z,101201.59
2022-12-01T00:03:58.906Z,101186.72
2022-12-01T00:06:27.186Z,101195.25
2022-12-01T00:09:18.141Z,101200.34
2022-12-01T00:11:48.731Z,101208.19
2022-12-01T00:14:17.598Z,101199.66
2022-12-01T00:16:46.045Z,101195.34
2022-12-01T00:19:14.233Z,101201.34
2022-12-01T00:21:42.545Z,101198.72
2022-12-01T00:24:12.875Z,101196.16
2022-12-01T00:26:41.134Z,101197.81
2022-12-01T00:29:09.342Z,101195.34
2022-12-01T00:31:38.431Z,101198.03
2022-12-01T00:34:11.093Z,101196.44
2022-12-01T00:36:40.515Z,101200.13
2022-12-01T00:39:08.715Z,101206.34
2022-12-01T00:41:38.135Z,101207.44
2022-12-01T00:44:06.587Z,101221.56
2022-12-01T00:46:34.893Z,101227.81
2022-12-01T00:49:02.963Z,101226.28
2022-12-01T00:51:31.314Z,101223.84
2022-12-01T00:53:59.376Z,101229.13
2022-12-01T00:56:27.511Z,101230.94
2022-12-01T00:58:56.978Z,101220.56
2022-12-01T01:01:25.230Z,101224.06
2022-12-01T01:03:53.436Z,101224.97
2022-12-01T01:06:21.616Z,101227.56
2022-12-01T01:08:49.721Z,101236.31
2022-12-01T01:11:17.935Z,101233.78
2022-12-01T01:13:46.045Z,101233.00
2022-12-01T01:16:17.666Z,101233.88
2022-12-01T01:18:45.881Z,101233.06
2022-12-01T01:21:16.663Z,101234.00
2022-12-01T01:23:44.953Z,101235.75
2022-12-01T01:26:15.915Z,101238.41
2022-12-01T01:28:45.873Z,101244.53
2022-12-01T01:31:17.587Z,101242.81
2022-12-01T01:33:46.075Z,101239.34
2022-12-01T01:36:15.403Z,101240.22
2022-12-01T01:38:43.648Z,101241.94
2022-12-01T01:41:12.340Z,101229.75
2022-12-01T01:43:44.966Z,101228.00
2022-12-01T01:46:16.291Z,101225.38
2022-12-01T01:48:48.707Z,101224.50
2022-12-01T01:51:19.104Z,101212.31
2022-12-01T01:53:49.283Z,101209.66
2022-12-01T01:56:17.415Z,101207.84
2022-12-01T01:58:46.195Z,101189.56
2022-12-01T02:01:15.623Z,101186.88
2022-12-01T02:03:44.348Z,101185.00
2022-12-01T02:06:13.726Z,101184.13
2022-12-01T02:08:41.906Z,101173.56
2022-12-01T02:11:33.716Z,101170.03
2022-12-01T02:14:14.726Z,101170.72
2022-12-01T02:16:52.810Z,101169.59
2022-12-01T02:19:44.306Z,101177.22
2022-12-01T02:22:23.447Z,101183.13
2022-12-01T02:25:09.195Z,101175.19
2022-12-01T02:27:53.136Z,101171.00
2022-12-01T02:30:33.696Z,101169.94
2022-12-01T02:33:08.045Z,101174.00
2022-12-01T02:35:47.419Z,101175.66
2022-12-01T02:38:22.964Z,101172.94
2022-12-01T02:40:56.075Z,101172.66
2022-12-01T02:43:32.805Z,101175.03
2022-12-01T02:46:09.315Z,101169.81
2022-12-01T02:48:43.044Z,101175.84
2022-12-01T02:51:18.496Z,101179.19
2022-12-01T02:53:47.004Z,101180.78
2022-12-01T02:56:16.683Z,101174.63
2022-12-01T02:58:45.053Z,101181.34
2022-12-01T03:01:32.359Z,101188.13
2022-12-01T03:04:10.115Z,101194.16
2022-12-01T03:06:49.352Z,101195.84
2022-12-01T03:09:30.315Z,101196.66
2022-12-01T03:12:08.804Z,101200.97
2022-12-01T03:14:42.914Z,101206.94
2022-12-01T03:17:17.476Z,101210.19
2022-12-01T03:19:49.923Z,101211.75
2022-12-01T03:22:25.827Z,101215.25
2022-12-01T03:24:56.874Z,101218.63
2022-12-01T03:27:30.844Z,101217.53
2022-12-01T03:30:02.435Z,101214.75
2022-12-01T03:32:38.165Z,101218.22
2022-12-01T03:35:10.960Z,101216.41
2022-12-01T03:37:42.874Z,101208.66
2022-12-01T03:40:17.748Z,101215.53
2022-12-01T03:42:49.189Z,101210.97
2022-12-01T03:45:20.822Z,101219.44
2022-12-01T03:47:50.353Z,101210.00
2022-12-01T03:50:19.309Z,101216.97
2022-12-01T03:52:55.054Z,101211.91
2022-12-01T03:55:27.595Z,101218.09
2022-12-01T03:57:59.636Z,101217.09
2022-12-01T04:00:27.902Z,101203.75
2022-12-01T04:02:59.312Z,101201.63
2022-12-01T04:05:28.056Z,101199.78
2022-12-01T04:07:56.196Z,101213.72
2022-12-01T04:10:24.444Z,101219.06
2022-12-01T04:12:58.734Z,101217.41
2022-12-01T04:15:28.044Z,101221.78
2022-12-01T04:17:57.462Z,101228.84
2022-12-01T04:20:25.595Z,101228.03
2022-12-01T04:22:53.624Z,101233.03
2022-12-01T04:25:21.733Z,101229.31
2022-12-01T04:27:50.012Z,101225.50
2022-12-01T04:30:18.563Z,101225.13
2022-12-01T04:32:46.613Z,101218.13
2022-12-01T04:35:16.260Z,101223.41
2022-12-01T04:37:44.415Z,101225.91
2022-12-01T04:40:13.338Z,101228.50
2022-12-01T04:42:41.383Z,101219.97
2022-12-01T04:45:10.716Z,101235.34
2022-12-01T04:47:38.755Z,101240.53
2022-12-01T04:50:07.712Z,101246.78
2022-12-01T04:52:39.394Z,101260.03
2022-12-01T04:55:08.535Z,101250.81
2022-12-01T04:57:36.611Z,101245.13
2022-12-01T05:00:13.098Z,101257.50
2022-12-01T05:02:43.384Z,101262.56
2022-12-01T05:05:11.815Z,101265.00
2022-12-01T05:07:41.817Z,101258.47
2022-12-01T05:10:10.407Z,101268.44
2022-12-01T05:12:38.532Z,101265.72
2022-12-01T05:15:07.464Z,101264.88
2022-12-01T05:17:37.199Z,101262.25
2022-12-01T05:20:24.084Z,101262.22
2022-12-01T05:23:12.226Z,101249.53
2022-12-01T05:25:42.522Z,101250.16
2022-12-01T05:28:10.615Z,101236.41
2022-12-01T05:30:38.797Z,101239.81
2022-12-01T05:33:06.835Z,101231.44
2022-12-01T05:35:35.055Z,101221.50
2022-12-01T05:38:07.983Z,101225.94
2022-12-01T05:40:36.744Z,101225.03
2022-12-01T05:43:05.042Z,101225.94
2022-12-01T05:45:33.746Z,101222.41
2022-12-01T05:48:03.209Z,101225.53
2022-12-01T05:50:31.820Z,101221.59
2022-12-01T05:52:59.846Z,101226.47
2022-12-01T05:55:29.309Z,101229.13
2022-12-01T05:57:57.414Z,101229.16
2022-12-01T06:00:25.594Z,101234.38
2022-12-01T06:02:53.735Z,101225.88
2022-12-01T06:05:21.975Z,101224.97
2022-12-01T06:07:50.091Z,101228.28
2022-12-01T06:10:18.244Z,101231.72
2022-12-01T06:12:47.805Z,101236.00
2022-12-01T06:15:15.977Z,101234.19
2022-12-01T06:17:44.036Z,101240.34
2022-12-01T06:20:13.132Z,101235.66
2022-12-01T06:22:41.259Z,101246.28
2022-12-01T06:25:10.044Z,101245.00
2022-12-01T06:27:38.312Z,101243.25
2022-12-01T06:30:08.924Z,101240.72
2022-12-01T06:32:37.149Z,101239.19
2022-12-01T06:35:05.538Z,101241.06
2022-12-01T06:37:33.726Z,101242.25
2022-12-01T06:40:01.823Z,101240.38
2022-12-01T06:42:31.676Z,101243.78
2022-12-01T06:44:59.727Z,101238.66
2022-12-01T06:47:29.625Z,101246.66
2022-12-01T06:49:57.717Z,101237.41
2022-12-01T06:52:25.965Z,101243.41
2022-12-01T06:54:54.048Z,101249.44
2022-12-01T06:57:22.488Z,101247.59
2022-12-01T06:59:50.978Z,101251.78
2022-12-01T07:02:19.684Z,101253.66
2022-12-01T07:04:49.082Z,101250.47
2022-12-01T07:07:17.195Z,101249.84
2022-12-01T07:09:45.364Z,101258.59
2022-12-01T07:12:13.465Z,101264.97
2022-12-01T07:14:42.524Z,101268.81
2022-12-01T07:17:11.009Z,101275.22
2022-12-01T07:19:39.114Z,101279.91
2022-12-01T07:22:08.604Z,101278.38
2022-12-01T07:24:36.687Z,101287.78
2022-12-01T07:27:04.906Z,101295.66
2022-12-01T07:29:33.045Z,101302.66
2022-12-01T07:32:01.183Z,101306.97
2022-12-01T07:34:29.303Z,101304.63
2022-12-01T07:36:57.499Z,101305.56
2022-12-01T07:39:27.047Z,101309.09
2022-12-01T07:41:55.154Z,101315.31
2022-12-01T07:44:23.232Z,101315.31
2022-12-01T07:46:51.427Z,101317.06
2022-12-01T07:49:19.602Z,101318.97
2022-12-01T07:51:47.936Z,101321.72
2022-12-01T07:54:16.944Z,101329.63
2022-12-01T07:56:46.404Z,101334.09
2022-12-01T07:59:14.490Z,101333.34
2022-12-01T08:01:44.687Z,101326.59
2022-12-01T08:04:13.554Z,101325.97
2022-12-01T08:06:41.816Z,101334.00
2022-12-01T08:09:10.048Z,101339.34
2022-12-01T08:11:38.105Z,101336.00
2022-12-01T08:14:07.861Z,101333.44
2022-12-01T08:16:35.966Z,101341.22
2022-12-01T08:19:04.205Z,101341.34
2022-12-01T08:21:32.277Z,101333.63
2022-12-01T08:24:00.464Z,101335.44
2022-12-01T08:26:28.964Z,101339.91
2022-12-01T08:28:58.007Z,101335.84
2022-12-01T08:31:29.520Z,101331.78
2022-12-01T08:33:58.846Z,101334.78
2022-12-01T08:36:26.954Z,101333.34
2022-12-01T08:38:58.595Z,101327.50
2022-12-01T08:41:28.476Z,101334.63
2022-12-01T08:43:59.615Z,101333.13
2022-12-01T08:46:32.719Z,101332.47
2022-12-01T08:49:01.105Z,101328.31
2022-12-01T08:51:29.389Z,101334.47
2022-12-01T08:53:58.818Z,101332.00
2022-12-01T08:56:29.644Z,101339.03
2022-12-01T08:58:58.250Z,101331.34
2022-12-01T09:01:26.778Z,101336.50
2022-12-01T09:04:07.657Z,101334.69
2022-12-01T09:06:40.136Z,101339.88
2022-12-01T09:09:09.224Z,101341.63
2022-12-01T09:11:37.345Z,101339.91
2022-12-01T09:14:05.524Z,101345.16
2022-12-01T09:16:34.028Z,101345.16
2022-12-01T09:19:03.735Z,101344.31
2022-12-01T09:21:33.968Z,101351.34
2022-12-01T09:24:03.114Z,101354.91
2022-12-01T09:26:31.396Z,101346.31
2022-12-01T09:29:00.606Z,101340.34
2022-12-01T09:31:29.041Z,101348.16
2022-12-01T09:33:58.555Z,101355.19
2022-12-01T09:36:29.028Z,101343.13
2022-12-01T09:38:57.473Z,101340.56
2022-12-01T09:41:28.943Z,101349.31
2022-12-01T09:44:01.874Z,101349.34
2022-12-01T09:46:35.527Z,101344.97
2022-12-01T09:49:05.469Z,101341.47
2022-12-01T09:51:36.363Z,101342.38
2022-12-01T09:54:04.763Z,101339.84
2022-12-01T09:56:40.883Z,101337.31
2022-12-01T09:59:15.004Z,101336.44
2022-12-01T10:01:45.940Z,101328.66
2022-12-01T10:04:19.331Z,101333.91
2022-12-01T10:06:55.413Z,101333.06
2022-12-01T10:09:29.554Z,101334.00
2022-12-01T10:12:02.814Z,101330.53
2022-12-01T10:14:35.018Z,101337.47
2022-12-01T10:17:14.430Z,101328.84
2022-12-01T10:19:53.526Z,101337.56
2022-12-01T10:22:39.753Z,101331.53
2022-12-01T10:25:19.973Z,101326.38
2022-12-01T10:28:01.294Z,101332.50
2022-12-01T10:30:29.655Z,101323.00
2022-12-01T10:33:02.936Z,101328.22
2022-12-01T10:35:37.727Z,101327.34
2022-12-01T10:38:14.144Z,101330.81
2022-12-01T10:40:44.094Z,101323.06
2022-12-01T10:43:12.343Z,101321.38
2022-12-01T10:45:45.095Z,101321.41
2022-12-01T10:48:16.997Z,101310.97
2022-12-01T10:50:47.327Z,101314.38
2022-12-01T10:53:30.894Z,101313.44
2022-12-01T10:56:06.294Z,101309.97
2022-12-01T10:58:41.805Z,101313.50
2022-12-01T11:01:18.604Z,101305.69
2022-12-01T11:03:52.140Z,101292.59
2022-12-01T11:06:24.966Z,101290.88
2022-12-01T11:08:57.577Z,101293.50
2022-12-01T11:11:30.281Z,101297.84
2022-12-01T11:14:01.295Z,101300.47
2022-12-01T11:16:38.969Z,101301.31
2022-12-01T11:19:10.587Z,101289.13
2022-12-01T11:21:48.164Z,101289.09
2022-12-01T11:24:31.312Z,101288.28
2022-12-01T11:27:01.274Z,101290.81
2022-12-01T11:29:36.020Z,101287.34
2022-12-01T11:32:19.301Z,101283.00
2022-12-01T11:34:52.934Z,101282.22
2022-12-01T11:37:24.223Z,101283.19
2022-12-01T11:39:54.295Z,101284.91
2022-12-01T11:42:27.241Z,101281.41
2022-12-01T11:44:58.225Z,101283.06
2022-12-01T11:47:29.191Z,101270.09
2022-12-01T11:49:59.377Z,101269.22
2022-12-01T11:52:32.144Z,101270.91
2022-12-01T11:55:09.696Z,101268.31
2022-12-01T11:57:42.075Z,101271.84
2022-12-01T12:00:15.421Z,101263.22
2022-12-01T12:03:14.427Z,101268.47
2022-12-01T12:06:01.453Z,101265.91
2022-12-01T12:08:59.203Z,101263.28
2022-12-01T12:11:40.374Z,101257.97
2022-12-01T12:14:30.435Z,101255.22
2022-12-01T12:17:17.710Z,101250.03
2022-12-01T12:20:09.682Z,101255.34
2022-12-01T12:22:53.874Z,101247.47
2022-12-01T12:25:31.121Z,101242.16
2022-12-01T12:28:16.866Z,101261.25
2022-12-01T12:30:51.541Z,101243.06
2022-12-01T12:33:42.286Z,101247.34
2022-12-01T12:36:19.901Z,101242.25
2022-12-01T12:39:00.744Z,101245.78
2022-12-01T12:41:36.375Z,101229.34
2022-12-01T12:44:21.521Z,101228.47
2022-12-01T12:47:03.193Z,101226.81
2022-12-01T12:49:41.824Z,101227.66
2022-12-01T12:52:16.395Z,101223.31
2022-12-01T12:54:50.244Z,101225.06
2022-12-01T12:57:26.814Z,101218.09
2022-12-01T13:00:01.295Z,101218.09
2022-12-01T13:02:35.465Z,101216.38
2022-12-01T13:05:10.339Z,101209.44
2022-12-01T13:07:45.034Z,101211.22
2022-12-01T13:10:24.325Z,101209.50
2022-12-01T13:12:58.834Z,101208.66
2022-12-01T13:15:31.020Z,101210.44
2022-12-01T13:18:04.854Z,101207.91
2022-12-01T13:20:37.757Z,101211.44
2022-12-01T13:23:06.222Z,101209.69
2022-12-01T13:25:39.580Z,101203.63
2022-12-01T13:28:18.517Z,101213.19
2022-12-01T13:31:01.952Z,101210.59
2022-12-01T13:33:31.124Z,101215.81
2022-12-01T13:36:30.004Z,101205.38
2022-12-01T13:38:58.173Z,101205.34
2022-12-01T13:41:29.598Z,101202.66
2022-12-01T13:44:24.535Z,101196.59
2022-12-01T13:46:59.636Z,101202.63
2022-12-01T13:49:39.851Z,101195.63
2022-12-01T13:52:33.780Z,101206.00
2022-12-01T13:55:22.767Z,101206.88
2022-12-01T13:58:14.074Z,101205.97
2022-12-01T14:00:43.381Z,101206.72
2022-12-01T14:03:39.409Z,101198.03
2022-12-01T14:06:11.593Z,101191.97
2022-12-01T14:08:47.964Z,101189.41
2022-12-01T14:11:23.024Z,101195.50
2022-12-01T14:13:55.654Z,101193.75
2022-12-01T14:16:24.678Z,101195.50
2022-12-01T14:18:57.496Z,101199.81
2022-12-01T14:21:45.285Z,101206.78
2022-12-01T14:24:24.194Z,101215.50
2022-12-01T14:26:53.696Z,101200.75
2022-12-01T14:29:34.283Z,101206.78
2022-12-01T14:32:22.762Z,101206.72
2022-12-01T14:34:57.064Z,101198.00
2022-12-01T14:37:34.347Z,101202.34
2022-12-01T14:40:08.426Z,101204.00
2022-12-01T14:42:56.983Z,101214.38
2022-12-01T14:45:30.465Z,101215.16
2022-12-01T14:48:04.082Z,101203.88
2022-12-01T14:50:45.010Z,101207.38
2022-12-01T14:53:22.905Z,101203.03
2022-12-01T14:55:56.268Z,101198.69
2022-12-01T14:58:29.403Z,101200.38
2022-12-01T15:01:04.516Z,101201.25
2022-12-01T15:03:37.567Z,101207.34
2022-12-01T15:06:07.765Z,101209.91
2022-12-01T15:08:45.934Z,101203.84
2022-12-01T15:11:23.260Z,101200.38
2022-12-01T15:13:53.347Z,101204.66
2022-12-01T15:16:23.866Z,101193.38
2022-12-01T15:18:53.073Z,101209.91
2022-12-01T15:21:26.363Z,101202.16
2022-12-01T15:23:58.161Z,101198.69
2022-12-01T15:26:29.596Z,101200.41
2022-12-01T15:29:17.549Z,101196.88
2022-12-01T15:31:48.324Z,101200.31
2022-12-01T15:34:20.834Z,101203.84
2022-12-01T15:36:52.257Z,101193.38
2022-12-01T15:39:22.696Z,101191.69
2022-12-01T15:41:54.166Z,101202.03
2022-12-01T15:44:26.945Z,101202.03
2022-12-01T15:46:55.253Z,101201.19
2022-12-01T15:49:29.820Z,101202.91
2022-12-01T15:52:08.884Z,101200.25
2022-12-01T15:54:38.684Z,101191.63
2022-12-01T15:57:07.950Z,101202.03
2022-12-01T15:59:40.099Z,101209.84
2022-12-01T16:02:24.559Z,101203.72
2022-12-01T16:05:02.704Z,101201.97
2022-12-01T16:08:04.878Z,101191.50
2022-12-01T16:10:29.494Z,101200.97
2022-12-01T16:13:31.164Z,101187.09
2022-12-01T16:15:59.703Z,101192.31
2022-12-01T16:18:31.984Z,101193.16
2022-12-01T16:21:04.975Z,101189.75
2022-12-01T16:23:34.663Z,101196.66
2022-12-01T16:26:09.424Z,101208.84
2022-12-01T16:28:37.764Z,101200.16
2022-12-01T16:31:10.189Z,101205.38
2022-12-01T16:33:40.954Z,101197.44
2022-12-01T16:36:09.762Z,101200.91
2022-12-01T16:38:39.187Z,101196.56
2022-12-01T16:41:17.420Z,101206.91
2022-12-01T16:44:05.788Z,101206.03
2022-12-01T16:46:37.980Z,101201.75
2022-12-01T16:49:06.814Z,101199.91
2022-12-01T16:51:54.221Z,101204.94
2022-12-01T16:54:25.381Z,101196.28
2022-12-01T16:56:55.801Z,101198.88
2022-12-01T16:59:23.983Z,101206.75
2022-12-01T17:01:52.453Z,101205.91
2022-12-01T17:04:20.716Z,101196.34
2022-12-01T17:06:48.941Z,101199.81
2022-12-01T17:09:17.074Z,101201.56
2022-12-01T17:11:46.564Z,101188.47
2022-12-01T17:14:14.764Z,101195.41
2022-12-01T17:16:43.503Z,101203.22
2022-12-01T17:19:13.402Z,101198.03
2022-12-01T17:21:41.464Z,101205.81
2022-12-01T17:24:10.034Z,101204.06
2022-12-01T17:26:38.141Z,101210.13
2022-12-01T17:29:07.784Z,101209.19
2022-12-01T17:31:35.979Z,101215.28
2022-12-01T17:34:04.613Z,101204.94
2022-12-01T17:36:32.881Z,101204.09
2022-12-01T17:39:00.913Z,101207.56
2022-12-01T17:41:32.595Z,101206.66
2022-12-01T17:44:04.322Z,101209.25
2022-12-01T17:46:34.021Z,101211.88
2022-12-01T17:49:08.557Z,101222.19
2022-12-01T17:51:36.748Z,101223.84
2022-12-01T17:54:05.063Z,101213.38
2022-12-01T17:56:33.775Z,101221.25
2022-12-01T17:59:01.925Z,101211.81
2022-12-01T18:01:30.868Z,101216.97
2022-12-01T18:04:00.463Z,101219.41
2022-12-01T18:06:28.878Z,101213.34
2022-12-01T18:08:57.641Z,101218.59
2022-12-01T18:11:25.916Z,101219.34
2022-12-01T18:13:54.104Z,101213.19
2022-12-01T18:16:24.293Z,101204.53
2022-12-01T18:18:52.854Z,101210.59
2022-12-01T18:21:24.028Z,101207.13
2022-12-01T18:23:53.075Z,101202.72
2022-12-01T18:26:22.280Z,101206.09
2022-12-01T18:28:55.794Z,101213.88
2022-12-01T18:31:24.303Z,101218.03
2022-12-01T18:33:53.026Z,101213.63
2022-12-01T18:36:26.011Z,101216.22
2022-12-01T18:38:55.553Z,101222.28
2022-12-01T18:41:23.722Z,101207.59
2022-12-01T18:43:51.961Z,101206.78
2022-12-01T18:46:21.649Z,101208.56
2022-12-01T18:48:52.460Z,101205.91
2022-12-01T18:51:22.460Z,101212.78
2022-12-01T18:53:54.645Z,101209.19
2022-12-01T18:56:22.891Z,101214.34
2022-12-01T18:58:55.889Z,101210.88
2022-12-01T19:01:26.600Z,101215.16
2022-12-01T19:03:55.749Z,101213.38
2022-12-01T19:06:25.838Z,101209.00
2022-12-01T19:08:54.704Z,101208.09
2022-12-01T19:11:23.195Z,101208.84
2022-12-01T19:13:51.294Z,101206.19
2022-12-01T19:16:21.330Z,101202.72
2022-12-01T19:18:49.616Z,101199.22
2022-12-01T19:21:19.374Z,101194.81
2022-12-01T19:23:49.729Z,101197.44
2022-12-01T19:26:20.192Z,101197.50
2022-12-01T19:28:48.803Z,101202.72
2022-12-01T19:31:19.517Z,101205.31
2022-12-01T19:33:48.156Z,101198.41
2022-12-01T19:36:18.622Z,101208.84
2022-12-01T19:38:49.295Z,101201.84
2022-12-01T19:41:20.390Z,101199.22
2022-12-01T19:43:49.471Z,101203.66
2022-12-01T19:46:19.851Z,101201.00
2022-12-01T19:48:48.584Z,101201.88
2022-12-01T19:51:18.704Z,101205.38
2022-12-01T19:53:48.360Z,101204.47
2022-12-01T19:56:16.757Z,101211.47
2022-12-01T19:58:45.254Z,101211.31
2022-12-01T20:01:14.981Z,101210.25
2022-12-01T20:03:45.714Z,101205.94
2022-12-01T20:06:17.120Z,101203.38
2022-12-01T20:08:45.713Z,101208.56
2022-12-01T20:11:15.955Z,101215.53
2022-12-01T20:13:46.275Z,101205.94
2022-12-01T20:16:15.962Z,101205.88
2022-12-01T20:18:44.923Z,101204.97
2022-12-01T20:21:17.226Z,101210.25
2022-12-01T20:23:46.573Z,101205.97
2022-12-01T20:26:18.672Z,101212.78
2022-12-01T20:28:48.603Z,101209.28
2022-12-01T20:31:19.407Z,101209.13
2022-12-01T20:33:48.274Z,101209.91
2022-12-01T20:36:17.082Z,101208.19
2022-12-01T20:38:45.343Z,101215.16
2022-12-01T20:41:15.203Z,101210.91
2022-12-01T20:43:43.612Z,101207.47
2022-12-01T20:46:12.762Z,101202.28
2022-12-01T20:48:41.192Z,101205.81
2022-12-01T20:51:10.366Z,101210.16
2022-12-01T20:53:38.545Z,101204.88
2022-12-01T20:56:08.744Z,101208.34
2022-12-01T20:58:38.993Z,101195.38
2022-12-01T21:01:10.130Z,101203.09
2022-12-01T21:03:40.805Z,101212.53
2022-12-01T21:06:09.704Z,101204.63
2022-12-01T21:08:38.569Z,101214.06
2022-12-01T21:11:08.125Z,101212.41
2022-12-01T21:13:39.444Z,101202.78
2022-12-01T21:16:14.395Z,101203.44
2022-12-01T21:18:55.339Z,101204.31
2022-12-01T21:21:27.696Z,101194.78
2022-12-01T21:24:09.694Z,101198.97
2022-12-01T21:26:39.134Z,101204.88
2022-12-01T21:29:18.466Z,101207.28
2022-12-01T21:31:46.735Z,101199.44
2022-12-01T21:34:19.495Z,101215.78
2022-12-01T21:36:49.223Z,101211.44
2022-12-01T21:39:20.620Z,101208.69
2022-12-01T21:41:50.663Z,101207.75
2022-12-01T21:44:21.674Z,101214.59
2022-12-01T21:46:54.375Z,101216.25
2022-12-01T21:49:26.564Z,101211.13
2022-12-01T21:51:55.364Z,101206.81
2022-12-01T21:54:24.329Z,101202.50
2022-12-01T21:56:57.694Z,101195.53
2022-12-01T21:59:27.185Z,101196.47
2022-12-01T22:01:57.320Z,101198.19
2022-12-01T22:04:30.113Z,101194.81
2022-12-01T22:06:59.563Z,101193.94
2022-12-01T22:09:30.725Z,101188.72
2022-12-01T22:12:02.463Z,101187.75
2022-12-01T22:14:35.607Z,101187.72
2022-12-01T22:17:19.664Z,101204.00
2022-12-01T22:19:55.327Z,101197.06
2022-12-01T22:22:25.126Z,101197.06
2022-12-01T22:24:54.814Z,101196.97
2022-12-01T22:27:28.696Z,101202.16
2022-12-01T22:30:02.574Z,101206.31
2022-12-01T22:32:34.243Z,101204.47
2022-12-01T22:35:21.572Z,101204.56
2022-12-01T22:37:51.631Z,101208.06
2022-12-01T22:40:39.673Z,101202.97
2022-12-01T22:43:27.974Z,101213.44
2022-12-01T22:46:17.042Z,101204.88
2022-12-01T22:48:47.808Z,101214.38
2022-12-01T22:51:23.561Z,101204.09
2022-12-01T22:53:54.725Z,101205.09
2022-12-01T22:56:30.311Z,101204.22
2022-12-01T22:58:59.032Z,101205.00
2022-12-01T23:01:31.284Z,101196.31
2022-12-01T23:04:14.393Z,101202.31
2022-12-01T23:06:54.083Z,101193.66
2022-12-01T23:09:23.703Z,101191.91
2022-12-01T23:11:56.224Z,101195.34
2022-12-01T23:14:25.254Z,101199.69
2022-12-01T23:17:02.063Z,101178.84
2022-12-01T23:19:30.294Z,101183.94
2022-12-01T23:21:58.414Z,101188.13
2022-12-01T23:24:29.731Z,101186.56
2022-12-01T23:27:01.874Z,101191.91
2022-12-01T23:29:31.395Z,101191.88
2022-12-01T23:32:00.844Z,101187.53
2022-12-01T23:34:29.580Z,101184.84
2022-12-01T23:36:57.995Z,101190.91
2022-12-01T23:39:33.176Z,101182.28
2022-12-01T23:42:01.423Z,101182.00
2022-12-01T23:44:39.884Z,101188.06
2022-12-01T23:47:17.234Z,101190.59
2022-12-01T23:49:46.423Z,101196.63
2022-12-01T23:52:19.741Z,101184.41
2022-12-01T23:54:48.544Z,101184.28
2022-12-01T23:57:20.675Z,101174.78
2022-12-01T23:59:49.873Z,101177.25
